Time;durP1;ratioP1;P1;durP2;ratioP2;P2;SDS_P1;SDS_P2;PMS_P1;PMS_P2;Temp;Humidity;BMP_temperature;BMP_pressure;BME280_temperature;BME280_humidity;BME280_pressure;Samples;Min_cycle;Max_cycle;Signal;HPM_P1;HPM_P2
2023/09/04 00:02:13;;;;;;;4.05;3.75;;;;;;;13.18;98.17;102848.88;6249166;22;20461;-76
2023/09/04 00:04:39;;;;;;;9.70;4.13;;;;;;;13.13;98.29;102847.41;6249860;22;20383;-77
2023/09/04 00:07:06;;;;;;;4.55;3.78;;;;;;;13.10;98.64;102853.56;6250313;22;20470;-76
2023/09/04 00:09:32;;;;;;;4.43;4.00;;;;;;;13.08;98.62;102847.84;6250117;22;20019;-76
2023/09/04 00:12:00;;;;;;;4.45;4.15;;;;;;;13.02;98.80;102841.44;6250431;22;20075;-77
2023/09/04 00:14:26;;;;;;;4.00;3.80;;;;;;;12.99;99.08;102834.22;6222346;22;20351;-76
2023/09/04 00:16:53;;;;;;;4.05;3.65;;;;;;;12.94;98.55;102840.78;6249814;22;20355;-77
2023/09/04 00:19:19;;;;;;;4.30;4.00;;;;;;;12.92;98.67;102847.69;6222951;22;20079;-77
2023/09/04 00:21:46;;;;;;;3.47;3.28;;;;;;;12.89;98.62;102849.25;6250940;22;20088;-77
2023/09/04 00:24:12;;;;;;;6.22;3.70;;;;;;;12.86;98.51;102839.38;6250280;22;20715;-77
2023/09/04 00:26:39;;;;;;;3.80;3.60;;;;;;;12.82;98.64;102838.66;6222822;22;20012;-78
2023/09/04 00:29:06;;;;;;;4.50;3.42;;;;;;;12.81;99.20;102841.75;6249783;22;20017;-76
2023/09/04 00:31:33;;;;;;;3.85;3.58;;;;;;;12.79;98.90;102838.75;6248995;22;20013;-75
2023/09/04 00:34:00;;;;;;;4.00;3.38;;;;;;;12.77;98.44;102846.41;6223523;22;20075;-75
2023/09/04 00:36:26;;;;;;;3.40;3.20;;;;;;;12.73;97.93;102835.78;6222234;22;20345;-75
2023/09/04 00:38:53;;;;;;;3.78;3.58;;;;;;;12.71;98.01;102840.75;6222800;22;20073;-76
2023/09/04 00:41:20;;;;;;;4.78;3.13;;;;;;;12.67;97.99;102835.47;6222278;22;20403;-76
2023/09/04 00:43:46;;;;;;;3.58;3.08;;;;;;;12.64;97.81;102830.16;6250234;22;20108;-76
2023/09/04 00:46:13;;;;;;;3.38;3.15;;;;;;;12.60;98.76;102830.22;6221908;22;20025;-76
2023/09/04 00:48:41;;;;;;;3.33;3.13;;;;;;;12.58;98.82;102832.53;6222614;22;20079;-77
2023/09/04 00:51:08;;;;;;;3.40;3.20;;;;;;;12.55;98.35;102824.56;6250132;22;20505;-77
2023/09/04 00:53:37;;;;;;;3.05;2.85;;;;;;;12.52;98.40;102836.81;6222710;22;20020;-77
2023/09/04 00:56:06;;;;;;;3.20;3.00;;;;;;;12.49;98.48;102828.84;6250239;22;20020;-76
2023/09/04 00:58:34;;;;;;;3.50;2.67;;;;;;;12.43;98.25;102831.19;6248994;22;20466;-77
2023/09/04 01:01:02;;;;;;;3.33;3.10;;;;;;;12.38;98.54;102828.22;6222329;22;20100;-76
2023/09/04 01:03:30;;;;;;;5.30;3.53;;;;;;;12.34;98.34;102834.38;6222062;22;20148;-76
2023/09/04 01:05:58;;;;;;;4.20;3.25;;;;;;;12.28;98.83;102835.97;6250393;22;20430;-76
2023/09/04 01:08:26;;;;;;;3.85;3.55;;;;;;;12.23;99.55;102832.97;6249466;22;20059;-77
2023/09/04 01:11:16;;;;;;;3.40;3.20;;;;;;;12.23;98.88;102833.75;6198271;22;20017;-76
2023/09/04 01:13:56;;;;;;;3.58;3.28;;;;;;;12.21;98.82;102836.06;6250026;22;20099;-76
2023/09/04 01:16:23;;;;;;;5.28;3.55;;;;;;;12.18;98.77;102828.84;6222076;22;20410;-76
2023/09/04 01:18:51;;;;;;;3.50;3.30;;;;;;;12.16;99.02;102831.16;6249278;22;20017;-76
2023/09/04 01:21:17;;;;;;;3.92;3.50;;;;;;;12.13;99.20;102831.94;6249638;22;20013;-76
2023/09/04 01:23:44;;;;;;;3.83;3.00;;;;;;;12.09;99.16;102833.91;6222992;22;20025;-76
2023/09/04 01:26:13;;;;;;;3.00;2.72;;;;;;;12.05;99.30;102833.19;6249934;22;20470;-76
2023/09/04 01:29:09;;;;;;;3.28;3.05;;;;;;;12.01;98.53;102830.53;6222009;22;20023;-76
2023/09/04 01:32:06;;;;;;;4.97;3.63;;;;;;;11.99;99.16;102832.13;6249644;22;20487;-76
2023/09/04 01:34:37;;;;;;;3.30;3.10;;;;;;;11.96;98.76;102833.69;6197501;22;20083;-76
2023/09/04 01:37:04;;;;;;;3.80;3.60;;;;;;;11.95;98.69;102832.16;6250272;22;20020;-76
2023/09/04 01:39:31;;;;;;;3.25;3.05;;;;;;;11.95;99.00;102840.16;6222290;22;20013;-76
2023/09/04 01:41:58;;;;;;;4.00;2.90;;;;;;;11.95;99.46;102839.41;6222966;22;20028;-76
2023/09/04 01:44:25;;;;;;;3.60;3.30;;;;;;;11.89;99.57;102833.75;6248623;22;20025;-76
2023/09/04 01:46:52;;;;;;;3.75;3.00;;;;;;;11.87;99.04;102829.97;6249942;22;20103;-76
2023/09/04 01:49:18;;;;;;;3.63;2.95;;;;;;;11.84;99.69;102825.41;6221677;22;20071;-76
2023/09/04 01:51:45;;;;;;;3.20;3.00;;;;;;;11.83;99.75;102829.25;6250188;22;20095;-76
2023/09/04 01:54:12;;;;;;;5.50;3.25;;;;;;;11.78;99.98;102827.75;6249212;22;20017;-76
2023/09/04 01:56:38;;;;;;;2.85;2.75;;;;;;;11.74;99.42;102835.00;6249703;22;20416;-76
2023/09/04 01:59:05;;;;;;;3.22;2.95;;;;;;;11.68;99.99;102829.34;6222152;22;20111;-76
2023/09/04 02:01:33;;;;;;;3.80;3.50;;;;;;;11.65;99.54;102832.03;6221825;22;20016;-76
2023/09/04 02:04:00;;;;;;;3.60;3.30;;;;;;;11.62;99.78;102836.25;6222371;22;20437;-76
2023/09/04 02:06:28;;;;;;;3.58;3.38;;;;;;;11.60;100.00;102832.47;6221874;22;20107;-76
2023/09/04 02:08:55;;;;;;;3.60;3.30;;;;;;;11.58;99.40;102834.81;6222140;22;20045;-76
2023/09/04 02:11:22;;;;;;;3.95;3.38;;;;;;;11.56;99.34;102832.53;6221517;22;20055;-77
2023/09/04 02:13:49;;;;;;;3.85;3.53;;;;;;;11.55;99.57;102833.69;6221994;22;20071;-76
2023/09/04 02:16:16;;;;;;;3.92;3.60;;;;;;;11.53;100.00;102829.88;6222074;22;20024;-76
2023/09/04 02:18:43;;;;;;;3.40;3.20;;;;;;;11.51;99.74;102830.28;6196597;22;20017;-76
2023/09/04 02:21:09;;;;;;;3.42;3.22;;;;;;;11.47;100.00;102826.13;6249215;22;20040;-76
2023/09/04 02:23:36;;;;;;;7.30;3.53;;;;;;;11.48;100.00;102832.97;6249229;22;20048;-76
2023/09/04 02:26:02;;;;;;;6.03;3.53;;;;;;;11.46;100.00;102829.94;6222659;22;20027;-76
2023/09/04 02:28:30;;;;;;;3.58;3.38;;;;;;;11.43;100.00;102828.06;6221286;22;20520;-76
2023/09/04 02:30:56;;;;;;;3.60;3.35;;;;;;;11.41;100.00;102835.72;6222412;22;20020;-76
2023/09/04 02:33:23;;;;;;;5.05;3.90;;;;;;;11.40;100.00;102834.94;6248666;22;20041;-76
2023/09/04 02:35:51;;;;;;;4.20;3.90;;;;;;;11.40;100.00;102832.28;6249703;22;20055;-76
2023/09/04 02:38:19;;;;;;;3.83;3.58;;;;;;;11.38;100.00;102834.59;6248733;22;20012;-75
2023/09/04 02:40:45;;;;;;;7.43;3.90;;;;;;;11.35;100.00;102830.78;6249053;22;20017;-75
2023/09/04 02:43:12;;;;;;;5.05;3.80;;;;;;;11.34;100.00;102833.84;6248517;22;20052;-75
2023/09/04 02:45:40;;;;;;;4.15;3.85;;;;;;;11.33;100.00;102827.00;6249325;22;20104;-76
2023/09/04 02:48:07;;;;;;;6.30;4.10;;;;;;;11.31;100.00;102824.72;6221878;22;20021;-75
2023/09/04 02:50:34;;;;;;;4.88;4.43;;;;;;;11.28;100.00;102824.75;6222099;22;20023;-75
2023/09/04 02:53:00;;;;;;;4.68;4.22;;;;;;;11.27;100.00;102817.91;6249462;22;20079;-77
2023/09/04 02:55:28;;;;;;;5.00;3.95;;;;;;;11.23;100.00;102809.94;6220671;22;20027;-77
2023/09/04 02:57:54;;;;;;;5.10;4.07;;;;;;;11.17;100.00;102806.19;6222235;22;20099;-76
2023/09/04 03:00:21;;;;;;;4.82;4.10;;;;;;;11.18;100.00;102797.06;6221870;22;20076;-75
2023/09/04 03:02:50;;;;;;;5.18;4.10;;;;;;;11.18;100.00;102799.72;6249468;22;20417;-75
2023/09/04 03:05:17;;;;;;;4.22;3.92;;;;;;;11.17;100.00;102792.88;6221601;22;20140;-76
2023/09/04 03:07:44;;;;;;;4.07;3.78;;;;;;;11.16;100.00;102786.03;6249299;22;20505;-75
2023/09/04 03:10:11;;;;;;;4.50;4.20;;;;;;;11.15;100.00;102786.41;6221152;22;20021;-76
2023/09/04 03:12:39;;;;;;;4.30;4.00;;;;;;;11.14;100.00;102787.56;6248509;22;20020;-75
2023/09/04 03:15:06;;;;;;;5.60;4.25;;;;;;;11.11;100.00;102786.44;6196862;22;20361;-75
2023/09/04 03:17:36;;;;;;;4.47;4.07;;;;;;;11.06;100.00;102778.88;6221326;22;20021;-76
2023/09/04 03:20:04;;;;;;;4.55;4.15;;;;;;;11.06;100.00;102770.13;6197127;22;20052;-76
2023/09/04 03:22:32;;;;;;;4.28;3.88;;;;;;;11.05;100.00;102771.25;6222921;22;20047;-76
2023/09/04 03:24:59;;;;;;;4.68;3.92;;;;;;;11.04;100.00;102775.84;6222859;22;20024;-76
2023/09/04 03:27:28;;;;;;;4.47;4.07;;;;;;;11.04;100.00;102775.84;6222357;22;20099;-75
2023/09/04 03:29:56;;;;;;;4.63;4.22;;;;;;;11.01;100.00;102772.03;6223360;22;20017;-76
2023/09/04 03:32:24;;;;;;;3.50;3.30;;;;;;;10.99;100.00;102769.00;6222666;22;20489;-76
2023/09/04 03:34:51;;;;;;;4.25;3.95;;;;;;;10.94;100.00;102772.09;6223476;22;20405;-75
2023/09/04 03:37:18;;;;;;;6.60;3.30;;;;;;;10.93;100.00;102770.59;6250099;22;20012;-75
2023/09/04 03:39:45;;;;;;;3.85;3.55;;;;;;;10.93;100.00;102762.59;6222307;22;20079;-76
2023/09/04 03:42:12;;;;;;;4.05;3.65;;;;;;;10.92;100.00;102766.41;6197547;22;20025;-76
2023/09/04 03:44:39;;;;;;;4.38;4.07;;;;;;;10.90;100.00;102760.69;6222941;22;20020;-75
2023/09/04 03:47:05;;;;;;;3.75;3.45;;;;;;;10.87;100.00;102753.50;6250195;22;20017;-77
2023/09/04 03:49:32;;;;;;;4.78;3.78;;;;;;;10.84;100.00;102751.59;6250120;22;20013;-76
2023/09/04 03:51:59;;;;;;;3.50;3.30;;;;;;;10.83;100.00;102750.09;6250595;22;20016;-76
2023/09/04 03:54:25;;;;;;;4.25;3.90;;;;;;;10.81;100.00;102748.97;6221628;22;20055;-76
2023/09/04 03:56:52;;;;;;;6.30;4.18;;;;;;;10.79;100.00;102748.63;6250429;22;20020;-75
2023/09/04 03:59:18;;;;;;;3.92;3.63;;;;;;;10.77;100.00;102745.59;6222267;22;20023;-75
2023/09/04 04:01:45;;;;;;;4.05;3.65;;;;;;;10.74;100.00;102751.72;6223299;22;20059;-76
2023/09/04 04:04:12;;;;;;;3.53;3.33;;;;;;;10.68;100.00;102754.03;6249914;22;20042;-76
2023/09/04 04:06:39;;;;;;;4.95;4.35;;;;;;;10.67;100.00;102752.50;6250025;22;20016;-76
2023/09/04 04:09:06;;;;;;;4.00;3.60;;;;;;;10.67;100.00;102752.50;6249340;22;20055;-76
2023/09/04 04:11:37;;;;;;;3.85;3.60;;;;;;;10.66;100.00;102751.00;6222258;22;20438;-77
2023/09/04 04:14:04;;;;;;;3.80;3.50;;;;;;;10.63;100.00;102744.53;6223193;22;20021;-76
2023/09/04 04:16:33;;;;;;;4.80;3.65;;;;;;;10.60;100.00;102745.31;6249860;22;20016;-76
2023/09/04 04:18:59;;;;;;;5.00;4.03;;;;;;;10.60;100.00;102741.91;6222661;22;20079;-77
2023/09/04 04:21:26;;;;;;;6.45;3.70;;;;;;;10.57;100.00;102748.00;6249462;22;20016;-76
2023/09/04 04:23:53;;;;;;;4.13;3.80;;;;;;;10.54;100.00;102741.56;6249373;22;20343;-76
2023/09/04 04:26:19;;;;;;;4.30;4.00;;;;;;;10.52;100.00;102743.84;6249340;22;20016;-76
2023/09/04 04:28:46;;;;;;;4.28;3.88;;;;;;;10.49;100.00;102747.28;6250293;22;20024;-77
2023/09/04 04:31:13;;;;;;;5.25;4.38;;;;;;;10.46;100.00;102742.75;6249939;22;20020;-77
2023/09/04 04:33:39;;;;;;;7.15;4.05;;;;;;;10.44;100.00;102745.03;6222703;22;20016;-76
2023/09/04 04:36:07;;;;;;;4.63;4.22;;;;;;;10.43;100.00;102740.84;6222270;22;20021;-77
2023/09/04 04:38:33;;;;;;;9.27;4.10;;;;;;;10.42;100.00;102752.66;6221866;22;20023;-77
2023/09/04 04:41:00;;;;;;;4.40;4.10;;;;;;;10.41;100.00;102745.06;6222495;22;20028;-77
2023/09/04 04:43:27;;;;;;;5.47;4.32;;;;;;;10.42;100.00;102746.56;6222133;22;20016;-76
2023/09/04 04:45:55;;;;;;;3.80;3.60;;;;;;;10.41;100.00;102751.13;6222751;22;20351;-77
2023/09/04 04:48:22;;;;;;;3.85;3.65;;;;;;;10.41;100.00;102751.13;6221984;22;20035;-77
2023/09/04 04:50:49;;;;;;;5.05;4.40;;;;;;;10.42;100.00;102746.56;6222349;22;20024;-79
2023/09/04 04:53:17;;;;;;;3.80;3.60;;;;;;;10.39;100.00;102740.16;6221323;22;20055;-78
2023/09/04 04:55:44;;;;;;;5.05;4.32;;;;;;;10.38;100.00;102738.63;6222510;22;20107;-77
2023/09/04 04:58:13;;;;;;;4.90;4.25;;;;;;;10.37;100.00;102733.69;6222129;22;20023;-76
2023/09/04 05:00:39;;;;;;;4.45;4.15;;;;;;;10.35;100.00;102742.81;6222451;22;20032;-77
2023/09/04 05:03:06;;;;;;;5.97;5.03;;;;;;;10.36;100.00;102735.59;6222378;22;20017;-76
2023/09/04 05:05:33;;;;;;;7.95;4.40;;;;;;;10.37;100.00;102739.78;6222576;22;20021;-77
2023/09/04 05:08:00;;;;;;;4.78;4.38;;;;;;;10.38;100.00;102732.53;6222235;22;20020;-77
2023/09/04 05:10:28;;;;;;;4.70;4.40;;;;;;;10.40;100.00;102733.63;6222061;22;20020;-78
2023/09/04 05:12:54;;;;;;;4.45;4.18;;;;;;;10.42;100.00;102728.69;6249391;22;20020;-78
2023/09/04 05:15:21;;;;;;;4.60;4.30;;;;;;;10.44;100.00;102729.06;6222075;22;20032;-77
2023/09/04 05:17:48;;;;;;;4.63;4.25;;;;;;;10.46;100.00;102736.66;6222730;22;20016;-75
2023/09/04 05:20:14;;;;;;;5.07;4.57;;;;;;;10.49;100.00;102727.88;6222054;22;20069;-79
2023/09/04 05:22:41;;;;;;;6.38;4.78;;;;;;;10.53;100.00;102736.63;6222282;22;20017;-77
2023/09/04 05:25:09;;;;;;;7.95;5.00;;;;;;;10.54;100.00;102730.91;6222788;22;20044;-76
2023/09/04 05:27:35;;;;;;;5.25;4.78;;;;;;;10.57;100.00;102737.34;6249618;22;20071;-77
2023/09/04 05:30:02;;;;;;;4.70;4.32;;;;;;;10.60;100.00;102737.34;6250125;22;20017;-77
2023/09/04 05:32:28;;;;;;;4.68;4.30;;;;;;;10.64;100.00;102734.66;6249422;22;20041;-77
2023/09/04 05:34:55;;;;;;;4.47;4.07;;;;;;;10.67;100.00;102747.19;6249323;22;20072;-76
2023/09/04 05:37:22;;;;;;;4.85;4.50;;;;;;;10.68;100.00;102744.13;6249155;22;20020;-76
2023/09/04 05:39:49;;;;;;;3.83;3.60;;;;;;;10.73;100.00;102752.84;6249357;22;20025;-78
2023/09/04 05:42:15;;;;;;;6.28;3.90;;;;;;;10.78;100.00;102749.78;6249472;22;20017;-75
2023/09/04 05:44:42;;;;;;;4.38;3.80;;;;;;;10.86;100.00;102749.31;6248973;22;20021;-74
2023/09/04 05:47:09;;;;;;;5.00;4.13;;;;;;;10.97;100.00;102742.00;6249298;22;20447;-74
2023/09/04 05:49:36;;;;;;;4.53;4.22;;;;;;;11.07;100.00;102744.97;6221415;22;20485;-74
2023/09/04 05:52:03;;;;;;;4.80;4.50;;;;;;;11.29;100.00;102746.28;6249922;22;20013;-75
2023/09/04 05:54:29;;;;;;;4.75;4.45;;;;;;;12.19;100.00;102750.25;6249529;22;20072;-79
2023/09/04 05:56:56;;;;;;;4.45;4.15;;;;;;;12.20;100.00;102745.66;6222769;22;20020;-79
2023/09/04 05:59:23;;;;;;;5.57;5.13;;;;;;;12.62;100.00;102746.97;6222451;22;20407;-79
2023/09/04 06:01:49;;;;;;;9.48;4.85;;;;;;;14.99;89.65;102749.53;6249771;22;20052;-79
2023/09/04 06:04:16;;;;;;;5.10;4.70;;;;;;;16.63;79.35;102747.59;6248791;22;20414;-77
2023/09/04 06:06:43;;;;;;;5.60;5.20;;;;;;;16.92;76.48;102755.50;6249368;22;20039;-75
2023/09/04 06:09:09;;;;;;;5.50;5.10;;;;;;;17.54;73.93;102748.38;6249121;22;20075;-75
2023/09/04 06:11:36;;;;;;;6.63;5.55;;;;;;;18.38;70.10;102756.41;6249240;22;20013;-75
2023/09/04 06:14:03;;;;;;;6.10;5.43;;;;;;;18.76;67.66;102750.69;6249552;22;20658;-75
2023/09/04 06:16:29;;;;;;;5.60;5.20;;;;;;;18.96;66.91;102759.06;6221835;22;20059;-75
2023/09/04 06:18:56;;;;;;;5.95;5.35;;;;;;;19.26;65.92;102759.38;6249197;22;20021;-75
2023/09/04 06:21:22;;;;;;;7.05;6.55;;;;;;;19.42;67.02;102761.75;6248906;22;20350;-76
2023/09/04 06:23:49;;;;;;;6.53;5.97;;;;;;;19.24;66.77;102769.88;6249255;22;20091;-77
2023/09/04 06:26:15;;;;;;;7.80;5.43;;;;;;;18.93;67.53;102768.06;6248987;22;20138;-78
2023/09/04 06:28:42;;;;;;;6.90;6.20;;;;;;;18.47;69.70;102771.84;6249465;22;20498;-78
2023/09/04 06:31:08;;;;;;;9.25;6.28;;;;;;;18.24;70.95;102770.44;6249147;22;20012;-79
2023/09/04 06:33:37;;;;;;;7.90;6.35;;;;;;;17.89;72.86;102765.22;6248520;22;20033;-79
2023/09/04 06:36:05;;;;;;;8.82;6.45;;;;;;;17.46;75.35;102763.28;6249639;22;20047;-80
2023/09/04 06:38:32;;;;;;;6.72;6.15;;;;;;;17.04;77.37;102772.81;6221917;22;20107;-79
2023/09/04 06:40:58;;;;;;;12.02;6.88;;;;;;;16.74;80.19;102771.50;6249620;22;20071;-79
2023/09/04 06:43:27;;;;;;;7.57;6.97;;;;;;;16.58;81.79;102773.09;6221860;22;20017;-84
2023/09/04 06:45:53;;;;;;;7.43;6.82;;;;;;;16.51;83.10;102765.25;6222043;22;20447;-81
2023/09/04 06:48:21;;;;;;;9.90;8.52;;;;;;;16.48;83.15;102760.72;6247150;22;20029;-83
2023/09/04 06:50:50;;;;;;;9.13;6.82;;;;;;;16.46;83.42;102767.72;6248604;22;20558;-77
2023/09/04 06:53:17;;;;;;;8.50;7.70;;;;;;;16.51;83.05;102767.94;6248689;22;20096;-79
2023/09/04 06:55:44;;;;;;;11.90;8.30;;;;;;;16.55;83.83;102765.13;6250046;22;20024;-76
2023/09/04 06:58:10;;;;;;;10.15;7.63;;;;;;;16.62;84.94;102762.97;6250219;22;20021;-78
2023/09/04 07:00:37;;;;;;;10.10;8.25;;;;;;;16.66;83.52;102755.59;6250169;22;20013;-79
2023/09/04 07:03:05;;;;;;;8.20;7.43;;;;;;;16.68;82.71;102749.78;6250047;22;20083;-76
2023/09/04 07:05:32;;;;;;;9.30;8.32;;;;;;;16.69;82.88;102756.66;6224059;22;20016;-78
2023/09/04 07:07:58;;;;;;;11.40;8.25;;;;;;;16.67;83.14;102750.97;6224182;22;20485;-81
2023/09/04 07:10:25;;;;;;;9.02;8.32;;;;;;;16.70;82.39;102750.09;6198506;22;20552;-77
2023/09/04 07:12:52;;;;;;;10.85;8.10;;;;;;;16.83;83.18;102741.97;6223934;22;20067;-76
2023/09/04 07:15:19;;;;;;;11.52;7.97;;;;;;;16.98;83.32;102743.78;6249504;22;20017;-77
2023/09/04 07:17:46;;;;;;;7.63;7.03;;;;;;;17.06;82.01;102744.28;6222577;22;20537;-75
2023/09/04 07:20:13;;;;;;;11.88;8.40;;;;;;;17.18;81.96;102748.13;6250139;22;20092;-75
2023/09/04 07:22:39;;;;;;;8.10;7.40;;;;;;;17.27;81.50;102756.25;6250168;22;20016;-75
2023/09/04 07:25:06;;;;;;;9.68;7.88;;;;;;;17.30;81.40;102734.59;6250244;22;20075;-75
2023/09/04 07:27:33;;;;;;;8.70;7.97;;;;;;;17.38;82.14;102740.47;6249993;22;20453;-75
2023/09/04 07:29:59;;;;;;;9.32;8.50;;;;;;;17.48;81.83;102746.69;6250433;22;20044;-76
2023/09/04 07:32:26;;;;;;;11.73;8.48;;;;;;;17.50;80.45;102744.31;6248915;22;20016;-75
2023/09/04 07:34:56;;;;;;;10.85;8.50;;;;;;;17.51;81.69;102746.56;6250363;22;20024;-74
2023/09/04 07:37:26;;;;;;;10.10;7.95;;;;;;;17.58;81.15;102746.31;6249502;22;20513;-75
2023/09/04 07:39:53;;;;;;;12.90;8.47;;;;;;;17.64;81.20;102751.84;6249588;22;20430;-76
2023/09/04 07:42:21;;;;;;;8.63;7.80;;;;;;;17.73;81.13;102751.94;6249730;22;20017;-76
2023/09/04 07:44:48;;;;;;;10.07;8.18;;;;;;;17.80;80.93;102750.94;6250402;22;20493;-74
2023/09/04 07:47:15;;;;;;;11.45;8.88;;;;;;;17.85;80.37;102751.13;6249599;22;20067;-82
2023/09/04 07:49:42;;;;;;;9.38;8.48;;;;;;;17.98;81.75;102746.41;6249741;22;20023;-79
2023/09/04 07:52:08;;;;;;;9.32;8.40;;;;;;;18.15;80.90;102749.59;6250073;22;20012;-78
2023/09/04 07:54:35;;;;;;;11.82;8.95;;;;;;;18.29;80.13;102753.69;6249539;22;20012;-81
2023/09/04 07:57:04;;;;;;;13.88;8.40;;;;;;;18.44;79.67;102748.47;6250406;22;20399;-88
2023/09/04 07:59:31;;;;;;;11.55;8.43;;;;;;;18.57;79.23;102749.88;6246653;22;20092;-81
2023/09/04 08:01:57;;;;;;;10.77;8.60;;;;;;;18.63;78.73;102747.34;6249386;22;20017;-79
2023/09/04 08:04:24;;;;;;;11.63;8.30;;;;;;;18.76;79.30;102752.63;6248400;22;20019;-77
2023/09/04 08:06:51;;;;;;;9.02;8.23;;;;;;;18.94;78.97;102750.69;6249765;22;20036;-78
2023/09/04 08:09:17;;;;;;;11.70;8.57;;;;;;;19.01;79.03;102756.97;6249890;22;20435;-77
2023/09/04 08:11:44;;;;;;;9.88;8.77;;;;;;;19.07;77.47;102750.53;6250218;22;20075;-77
2023/09/04 08:14:11;;;;;;;8.75;8.00;;;;;;;19.18;77.66;102750.09;6249747;22;20012;-78
2023/09/04 08:16:37;;;;;;;8.88;8.07;;;;;;;19.30;77.00;102751.88;6249164;22;20469;-79
2023/09/04 08:19:04;;;;;;;10.02;7.97;;;;;;;19.42;77.70;102750.22;6222743;22;20044;-76
2023/09/04 08:21:34;;;;;;;16.43;8.37;;;;;;;19.49;75.74;102753.34;6249552;22;20019;-77
2023/09/04 08:24:01;;;;;;;8.63;7.82;;;;;;;19.53;75.82;102750.53;6249647;22;20013;-73
2023/09/04 08:26:29;;;;;;;11.60;8.45;;;;;;;19.68;75.79;102742.50;6248876;22;20024;-73
2023/09/04 08:28:56;;;;;;;10.18;8.70;;;;;;;19.77;75.61;102743.25;6249276;22;20390;-73
2023/09/04 08:31:23;;;;;;;9.48;8.30;;;;;;;19.80;75.09;102731.53;6249159;22;20033;-73
2023/09/04 08:33:49;;;;;;;8.70;8.05;;;;;;;19.91;74.96;102733.75;6249941;22;20012;-75
2023/09/04 08:36:16;;;;;;;8.80;8.10;;;;;;;20.09;76.13;102738.31;6249645;22;20023;-76
2023/09/04 08:38:43;;;;;;;9.15;8.30;;;;;;;20.18;75.15;102736.31;6222804;22;20017;-76
2023/09/04 08:41:13;;;;;;;11.20;8.40;;;;;;;20.38;74.86;102748.56;6249627;22;20465;-76
2023/09/04 08:43:41;;;;;;;8.80;7.72;;;;;;;20.51;73.92;102743.66;6249306;22;20013;-75
2023/09/04 08:46:07;;;;;;;9.05;8.35;;;;;;;20.64;73.23;102753.06;6249598;22;20423;-75
2023/09/04 08:48:41;;;;;;;10.10;8.35;;;;;;;20.73;74.02;102751.50;6249895;22;20426;-75
2023/09/04 08:51:09;;;;;;;9.25;7.82;;;;;;;20.91;72.96;102754.03;6249658;22;20502;-75
2023/09/04 08:53:36;;;;;;;8.75;7.97;;;;;;;21.10;72.17;102749.25;6249820;22;20012;-72
2023/09/04 08:56:05;;;;;;;8.48;7.72;;;;;;;21.18;71.15;102737.59;6250099;22;20028;-74
2023/09/04 08:58:32;;;;;;;8.50;7.70;;;;;;;21.24;70.00;102733.03;6249139;22;20016;-75
2023/09/04 09:01:00;;;;;;;7.85;7.25;;;;;;;21.34;69.75;102725.56;6250404;22;20554;-73
2023/09/04 09:03:27;;;;;;;11.27;8.45;;;;;;;21.48;68.92;102729.50;6249238;22;20096;-75
2023/09/04 09:05:56;;;;;;;7.97;7.28;;;;;;;21.64;68.61;102726.28;6222685;22;20016;-74
2023/09/04 09:08:24;;;;;;;8.38;7.68;;;;;;;21.75;69.10;102726.47;6249327;22;20096;-75
2023/09/04 09:10:52;;;;;;;7.47;6.88;;;;;;;21.91;67.48;102717.09;6250042;22;20498;-75
2023/09/04 09:13:20;;;;;;;7.88;7.15;;;;;;;21.93;66.32;102720.81;6248689;22;20012;-75
2023/09/04 09:15:47;;;;;;;8.10;7.25;;;;;;;22.09;67.96;102718.81;6249947;22;20028;-78
2023/09/04 09:18:33;;;;;;;8.20;7.40;;;;;;;22.26;67.12;102715.13;6248752;22;20092;-76
2023/09/04 09:21:00;;;;;;;8.63;7.13;;;;;;;22.35;65.55;102721.66;6250009;22;20015;-75
2023/09/04 09:23:26;;;;;;;9.10;7.80;;;;;;;22.42;65.21;102719.25;6249139;22;20433;-74
2023/09/04 09:25:56;;;;;;;7.53;6.82;;;;;;;22.54;65.04;102714.72;6249720;22;20052;-74
2023/09/04 09:28:22;;;;;;;10.48;6.20;;;;;;;22.69;64.32;102720.06;6221842;22;20013;-76
2023/09/04 09:30:50;;;;;;;7.55;6.90;;;;;;;22.77;64.13;102721.91;6250004;22;20017;-76
2023/09/04 09:33:20;;;;;;;9.50;7.15;;;;;;;22.98;63.72;102724.59;6249460;22;20051;-76
2023/09/04 09:35:47;;;;;;;8.77;7.50;;;;;;;22.92;62.05;102725.28;6250020;22;20028;-76
2023/09/04 09:38:14;;;;;;;8.13;7.40;;;;;;;23.03;63.20;102721.94;6249548;22;20390;-74
2023/09/04 09:40:43;;;;;;;12.25;7.38;;;;;;;23.21;63.30;102723.56;6222085;22;20022;-79
2023/09/04 09:43:09;;;;;;;7.85;7.10;;;;;;;23.29;61.90;102727.34;6248774;22;20123;-76
2023/09/04 09:45:37;;;;;;;6.82;6.32;;;;;;;23.51;62.14;102724.81;6249563;22;20063;-75
2023/09/04 09:48:07;;;;;;;7.00;6.50;;;;;;;23.68;61.62;102729.66;6249821;22;20438;-76
2023/09/04 09:50:40;;;;;;;8.63;6.60;;;;;;;23.75;61.13;102721.78;6249918;22;20040;-77
2023/09/04 09:53:06;;;;;;;6.63;6.22;;;;;;;23.86;61.06;102721.13;6249371;22;20017;-78
2023/09/04 09:55:34;;;;;;;7.30;6.70;;;;;;;23.92;60.67;102725.38;6249554;22;20354;-81
2023/09/04 09:58:01;;;;;;;7.53;6.70;;;;;;;24.01;58.63;102723.66;6248952;22;20048;-78
2023/09/04 10:00:28;;;;;;;6.30;5.95;;;;;;;24.08;59.04;102720.50;6248983;22;20013;-82
2023/09/04 10:02:55;;;;;;;7.20;5.90;;;;;;;24.14;58.63;102719.28;6223060;22;20013;-82
2023/09/04 10:05:24;;;;;;;8.80;5.30;;;;;;;24.18;58.39;102708.19;6248707;22;20023;-83
2023/09/04 10:08:00;;;;;;;6.20;5.60;;;;;;;24.37;57.80;102703.84;6249484;22;20477;-81
2023/09/04 10:10:36;;;;;;;6.20;5.60;;;;;;;24.40;56.23;102711.00;6221519;22;20013;-78
2023/09/04 10:13:19;;;;;;;5.80;5.40;;;;;;;24.46;56.68;102695.44;6249676;22;20016;-76
2023/09/04 10:15:47;;;;;;;7.45;5.22;;;;;;;24.53;57.32;102694.22;6249383;22;20027;-75
2023/09/04 10:18:24;;;;;;;6.20;5.75;;;;;;;24.61;56.10;102692.53;6248959;22;20024;-76
2023/09/04 10:20:53;;;;;;;5.60;5.20;;;;;;;24.64;56.19;102685.34;6249741;22;20033;-79
2023/09/04 10:23:24;;;;;;;5.88;5.30;;;;;;;24.66;55.16;102683.63;6248972;22;20071;-80
2023/09/04 10:26:07;;;;;;;5.78;5.28;;;;;;;24.62;55.92;102676.94;6249109;22;20021;-79
2023/09/04 10:28:39;;;;;;;7.90;5.10;;;;;;;24.58;55.06;102682.63;6249503;22;20017;-78
2023/09/04 10:31:11;;;;;;;5.80;4.88;;;;;;;24.57;54.42;102668.25;6255229;22;20016;-79
2023/09/04 10:33:39;;;;;;;8.43;4.85;;;;;;;24.59;54.87;102678.66;6249605;22;20059;-80
2023/09/04 10:36:05;;;;;;;4.82;4.38;;;;;;;24.64;56.30;102677.94;6249442;22;20021;-80
2023/09/04 10:38:34;;;;;;;4.45;4.10;;;;;;;24.75;55.68;102679.94;6249341;22;20024;-81
2023/09/04 10:41:01;;;;;;;7.03;4.38;;;;;;;24.81;54.18;102681.41;6248744;22;20017;-79
2023/09/04 10:43:41;;;;;;;6.97;4.40;;;;;;;24.85;54.96;102670.28;6248572;22;20099;-79
2023/09/04 10:46:10;;;;;;;6.82;4.63;;;;;;;24.94;55.47;102670.78;6249639;22;20017;-83
2023/09/04 10:48:47;;;;;;;4.97;4.60;;;;;;;24.97;54.54;102669.09;6249150;22;20443;-79
2023/09/04 10:51:37;;;;;;;6.53;5.25;;;;;;;24.88;54.75;102661.13;6247503;22;20019;-79
2023/09/04 10:54:24;;;;;;;6.95;4.43;;;;;;;24.95;54.98;102660.63;6248733;22;20024;-79
2023/09/04 10:57:05;;;;;;;4.05;3.75;;;;;;;24.94;52.17;102670.03;6221381;22;20172;-79
2023/09/04 10:59:55;;;;;;;6.70;4.13;;;;;;;24.71;52.86;102652.94;6248565;22;20023;-79
2023/09/04 11:02:31;;;;;;;4.05;3.85;;;;;;;24.73;52.75;102650.47;6247747;22;20012;-80
2023/09/04 11:05:00;;;;;;;4.60;3.90;;;;;;;24.83;52.47;102648.97;6248816;22;20013;-79
2023/09/04 11:07:33;;;;;;;4.47;4.15;;;;;;;24.85;52.18;102651.22;6221150;22;20017;-79
2023/09/04 11:10:13;;;;;;;5.80;4.10;;;;;;;24.82;52.89;102647.50;6221368;22;20096;-79
2023/09/04 11:12:43;;;;;;;4.20;3.90;;;;;;;24.79;52.08;102643.03;6248621;22;20012;-79
2023/09/04 11:15:12;;;;;;;4.78;4.13;;;;;;;24.80;51.83;102649.22;6220985;22;20431;-80
2023/09/04 11:17:43;;;;;;;4.25;3.80;;;;;;;24.82;52.56;102635.84;6248554;22;20107;-81
2023/09/04 11:20:10;;;;;;;;;;;;;;;25.01;54.25;102628.72;6222095;22;20021;-79
2023/09/04 11:22:37;;;;;;;5.55;4.18;;;;;;;25.05;52.06;102639.38;6248282;22;19920;-80
2023/09/04 11:25:04;;;;;;;4.65;3.92;;;;;;;25.00;52.44;102624.50;6248162;22;20020;-78
2023/09/04 11:27:31;;;;;;;4.60;4.20;;;;;;;24.98;52.06;102628.97;6247947;22;20572;-79